createdAt,value
2019-04-05T00:03:02.046Z,82
2019-04-05T00:08:04.531Z,80
2019-04-05T00:13:06.975Z,84
2019-04-05T00:18:09.357Z,86
2019-04-05T00:23:11.833Z,84
2019-04-05T00:28:14.250Z,91
2019-04-05T00:33:16.686Z,86
2019-04-05T00:38:19.119Z,90
2019-04-05T00:43:21.588Z,90
2019-04-05T00:48:23.998Z,95
2019-04-05T00:53:26.502Z,99
2019-04-05T00:58:28.895Z,104
2019-04-05T01:03:31.430Z,105
2019-04-05T01:08:33.756Z,109
2019-04-05T01:13:36.206Z,110
2019-04-05T01:18:38.979Z,113
2019-04-05T01:23:41.066Z,108
2019-04-05T01:28:43.517Z,114
2019-04-05T01:33:46.075Z,118
2019-04-05T01:38:48.423Z,118
2019-04-05T01:43:50.900Z,111
2019-04-05T01:48:53.276Z,112
2019-04-05T01:53:55.708Z,113
2019-04-05T01:58:58.174Z,120
2019-04-05T02:04:00.622Z,110
2019-04-05T02:09:03.029Z,109
2019-04-05T02:14:05.571Z,116
2019-04-05T02:19:08.053Z,103
2019-04-05T02:24:10.421Z,103
2019-04-05T02:29:12.810Z,101
2019-04-05T02:34:15.341Z,108
2019-04-05T02:39:17.675Z,103
2019-04-05T02:44:20.177Z,97
2019-04-05T02:49:22.575Z,102
2019-04-05T02:54:25.008Z,95
2019-04-05T02:59:27.461Z,99
2019-04-05T03:04:29.957Z,104
2019-04-05T03:09:32.316Z,100
2019-04-05T03:14:34.754Z,112
2019-04-05T03:19:37.263Z,106
2019-04-05T03:24:39.699Z,107
2019-04-05T03:29:42.305Z,112
2019-04-05T03:34:44.604Z,101
2019-04-05T03:39:46.963Z,93
2019-04-05T03:44:49.399Z,108
2019-04-05T03:49:51.855Z,106
2019-04-05T03:54:54.324Z,102
2019-04-05T03:59:56.711Z,100
2019-04-05T04:04:59.303Z,111
2019-04-05T04:10:01.906Z,106
2019-04-05T04:15:04.069Z,107
2019-04-05T04:20:06.674Z,111
2019-04-05T04:25:08.917Z,111
2019-04-05T04:30:11.434Z,101
2019-04-05T04:35:13.908Z,103
2019-04-05T04:40:16.247Z,108
2019-04-05T04:45:18.741Z,113
2019-04-05T04:50:21.141Z,106
2019-04-05T04:55:23.584Z,109
2019-04-05T05:00:26.017Z,102
2019-04-05T05:05:28.500Z,100
2019-04-05T05:10:30.882Z,102
2019-04-05T05:15:33.335Z,104
2019-04-05T05:20:36.125Z,97
2019-04-05T05:25:38.226Z,88
2019-04-05T05:30:40.646Z,101
2019-04-05T05:35:43.246Z,100
2019-04-05T05:40:45.565Z,99
2019-04-05T05:45:48.061Z,101
2019-04-05T05:50:50.817Z,103
2019-04-05T06:00:55.322Z,90
2019-04-05T06:11:00.159Z,89
2019-04-05T06:16:02.605Z,92
2019-04-05T06:21:05.034Z,88
2019-04-05T06:26:07.477Z,93
2019-04-05T06:31:09.985Z,84
2019-04-05T06:36:12.364Z,91
2019-04-05T06:41:14.806Z,96
2019-04-05T06:46:17.358Z,103
2019-04-05T06:51:19.704Z,99
2019-04-05T06:56:22.120Z,88
2019-04-05T07:01:24.549Z,95
2019-04-05T07:06:27.012Z,86
2019-04-05T07:11:29.432Z,91
2019-04-05T07:16:31.885Z,86
2019-04-05T07:21:34.428Z,81
2019-04-05T07:26:36.903Z,77
2019-04-05T07:31:39.195Z,72
2019-04-05T07:36:42.131Z,75
2019-04-05T07:41:44.177Z,67
2019-04-05T07:46:46.813Z,71
2019-04-05T07:51:48.963Z,75
2019-04-05T07:56:51.473Z,91
2019-04-05T08:01:53.980Z,102
2019-04-05T08:06:56.348Z,105
2019-04-05T08:11:58.719Z,99
2019-04-05T08:17:01.214Z,103
2019-04-05T08:22:03.719Z,94
2019-04-05T08:27:06.125Z,96
2019-04-05T08:32:14.186Z,92
2019-04-05T08:37:10.916Z,86
2019-04-05T08:42:13.380Z,92
2019-04-05T08:47:15.884Z,90
2019-04-05T08:52:18.347Z,86
2019-04-05T08:57:20.747Z,79
2019-04-05T09:02:23.127Z,74
2019-04-05T09:07:25.566Z,73
2019-04-05T09:12:28.097Z,69
2019-04-05T09:17:30.506Z,71
2019-04-05T09:22:32.880Z,77
2019-04-05T09:27:35.422Z,70
2019-04-05T09:32:37.764Z,69
2019-04-05T09:37:40.213Z,69
2019-04-05T09:42:42.646Z,68
2019-04-05T09:47:45.100Z,68
2019-04-05T09:52:47.742Z,69
2019-04-05T09:57:50.049Z,66
2019-04-05T10:02:52.741Z,67
2019-04-05T10:07:55.775Z,67
2019-04-05T10:12:57.310Z,63
2019-04-05T10:17:59.850Z,63
2019-04-05T10:23:02.202Z,67
2019-04-05T10:28:04.598Z,65
2019-04-05T10:33:07.073Z,69
2019-04-05T10:38:09.546Z,63
2019-04-05T10:43:12.074Z,62
2019-04-05T10:48:14.375Z,60
2019-04-05T10:53:16.815Z,60
2019-04-05T10:58:19.360Z,59
2019-04-05T11:03:22.031Z,59
2019-04-05T11:08:24.181Z,55
2019-04-05T11:13:26.613Z,57
2019-04-05T11:23:31.455Z,53
2019-04-05T11:28:33.989Z,54
2019-04-05T11:33:36.395Z,52
2019-04-05T11:38:38.788Z,50
2019-04-05T11:43:41.265Z,52
2019-04-05T11:48:43.875Z,49
2019-04-05T11:53:46.288Z,67
2019-04-05T11:58:48.917Z,54
2019-04-05T12:03:51.054Z,57
2019-04-05T12:08:53.687Z,57
2019-04-05T12:13:55.948Z,56
2019-04-05T12:18:58.962Z,58
2019-04-05T12:24:02.536Z,55
2019-04-05T12:29:03.202Z,58
2019-04-05T12:34:05.648Z,56
2019-04-05T12:39:08.450Z,60
2019-04-05T12:44:14.074Z,72
2019-04-05T12:49:13.315Z,62
2019-04-05T12:54:15.414Z,61
2019-04-05T12:59:18.006Z,53
2019-04-05T13:04:21.214Z,55
2019-04-05T13:09:23.482Z,55
2019-04-05T13:14:26.456Z,63
2019-04-05T13:19:28.492Z,62
2019-04-05T13:24:30.074Z,62
2019-04-05T13:29:32.475Z,62
2019-04-05T13:34:34.932Z,63
2019-04-05T13:44:39.854Z,66
2019-04-05T13:49:42.602Z,67
2019-04-05T13:54:44.705Z,66
2019-04-05T13:59:47.122Z,64
2019-04-05T14:09:52.009Z,61
2019-04-05T14:14:54.572Z,58
2019-04-05T14:19:56.937Z,63
2019-04-05T14:24:59.354Z,64
2019-04-05T14:30:03.053Z,64
2019-04-05T14:35:07.322Z,67
2019-04-05T14:40:06.911Z,62
2019-04-05T14:45:09.136Z,62
2019-04-05T14:50:11.625Z,64
2019-04-05T14:55:13.974Z,63
2019-04-05T15:00:16.454Z,66
2019-04-05T15:05:18.922Z,66
2019-04-05T15:10:24.743Z,64
2019-04-05T15:15:23.739Z,64
2019-04-05T15:20:26.252Z,63
2019-04-05T15:25:28.688Z,63
2019-04-05T15:30:31.159Z,59
2019-04-05T15:35:33.511Z,65
2019-04-05T15:40:35.966Z,64
2019-04-05T15:45:38.392Z,65
2019-04-05T15:50:41.260Z,66
2019-04-05T15:55:43.276Z,65
2019-04-05T16:00:46.056Z,70
2019-04-05T16:05:48.326Z,69
2019-04-05T16:10:50.676Z,68
2019-04-05T16:15:53.032Z,68
2019-04-05T16:20:55.554Z,63
2019-04-05T16:25:57.904Z,64
2019-04-05T16:31:00.351Z,67
2019-04-05T16:36:02.836Z,67
2019-04-05T16:41:05.303Z,60
2019-04-05T16:46:07.677Z,64
2019-04-05T16:51:10.129Z,66
2019-04-05T16:56:12.612Z,65
2019-04-05T17:01:26.373Z,65
2019-04-05T17:06:17.445Z,66
2019-04-05T17:11:19.976Z,69
2019-04-05T17:16:22.654Z,70
2019-04-05T17:21:24.808Z,70
2019-04-05T17:26:27.296Z,65
2019-04-05T17:31:29.771Z,65
2019-04-05T17:41:34.501Z,76
2019-04-05T17:46:36.988Z,66
2019-04-05T17:51:39.450Z,69
2019-04-05T17:56:41.910Z,73
2019-04-05T18:01:44.327Z,70
2019-04-05T18:06:46.758Z,66
2019-04-05T18:11:49.173Z,64
2019-04-05T18:16:51.638Z,71
2019-04-05T18:21:54.040Z,65
2019-04-05T18:26:56.508Z,73
2019-04-05T18:31:58.912Z,93
2019-04-05T18:37:01.492Z,68
2019-04-05T18:42:03.852Z,64
2019-04-05T18:47:06.282Z,69
2019-04-05T18:52:08.746Z,71
2019-04-05T18:57:13.948Z,66
2019-04-05T19:02:13.565Z,70
2019-04-05T19:07:16.052Z,72
2019-04-05T19:12:18.480Z,69
2019-04-05T19:17:24.006Z,71
2019-04-05T19:22:23.395Z,76
2019-04-05T19:27:25.781Z,70
2019-04-05T19:52:37.958Z,78
2019-04-05T19:57:40.552Z,76
2019-04-05T20:02:42.854Z,80
2019-04-05T20:07:45.271Z,73
2019-04-05T20:12:47.716Z,65
2019-04-05T20:17:50.396Z,67
2019-04-05T20:22:52.625Z,60
2019-04-05T20:27:55.118Z,69
2019-04-05T20:32:57.570Z,76
2019-04-05T20:38:05.313Z,81
2019-04-05T20:43:02.375Z,74
2019-04-05T20:48:04.856Z,68
2019-04-05T20:53:07.263Z,76
2019-04-05T20:58:09.686Z,58
2019-04-05T21:03:13.055Z,63
2019-04-05T21:08:14.649Z,65
2019-04-05T21:13:17.011Z,63
2019-04-05T21:18:19.489Z,69
2019-04-05T21:23:21.884Z,66
2019-04-05T21:28:24.471Z,59
2019-04-05T21:33:26.775Z,67
2019-04-05T21:38:29.211Z,61
2019-04-05T21:43:31.678Z,75
2019-04-05T21:48:34.096Z,85
2019-04-05T21:53:36.646Z,90
2019-04-05T21:58:39.038Z,91
2019-04-05T22:03:41.433Z,74
2019-04-05T22:08:43.846Z,77
2019-04-05T22:13:46.275Z,67
2019-04-05T22:18:48.722Z,60
2019-04-05T22:23:51.166Z,65
2019-04-05T22:28:53.694Z,63
2019-04-05T22:33:56.123Z,55
2019-04-05T22:38:58.486Z,62
2019-04-05T22:44:00.955Z,71
2019-04-05T22:49:03.397Z,81
2019-04-05T22:54:05.841Z,81
2019-04-05T22:59:08.266Z,81
2019-04-05T23:04:10.901Z,73
2019-04-05T23:09:13.129Z,71
2019-04-05T23:14:15.561Z,81
2019-04-05T23:19:18.019Z,66
2019-04-05T23:24:20.488Z,65
2019-04-05T23:29:23.024Z,57
2019-04-05T23:34:25.353Z,44
2019-04-05T23:39:27.765Z,40
2019-04-05T23:44:30.267Z,27
2019-04-05T23:49:32.746Z,27
2019-04-05T23:54:35.087Z,22
2019-04-05T23:59:38.220Z,23
